D/T METAR WX W/DIR W/SPE G/SPE TEMP DEWP
16/01/19 02:50 EGQK 160250Z AUTO 23010KT 9999 OVC100/// 07/04 Q0993 SW (230°) 11.5mph 7°C 4°C
16/01/19 01:50 EGQK 160150Z AUTO 24013KT 9999 OVC070/// 08/04 Q0993 RERA WSW (240°) 15.0mph 8°C 4°C
16/01/19 00:50 EGQK 160050Z AUTO 25017KT 9999 -RA BKN060/// 09/05 Q0993 -RA WSW (250°) 19.6mph 9°C 5°C
15/01/19 23:50 EGQK 152350Z AUTO 24016KT 9999 -RA FEW021/// BKN042/// 09/08 Q0993 -RA WSW (240°) 18.4mph 9°C 8°C
15/01/19 22:50 EGQK 152250Z AUTO 23020KT 9999 OVC045/// 11/07 Q0992 SW (230°) 23.0mph 11°C 7°C
15/01/19 21:50 EGQK 152150Z AUTO 23017KT 9999 FEW042/// BKN048/// 10/07 Q0994 SW (230°) 19.6mph 10°C 7°C
15/01/19 20:50 EGQK 152050Z AUTO 23020G30KT 9999 BKN049/// 10/06 Q0994 RERA SW (230°) 23.0mph 34.5mph 10°C 6°C
15/01/19 19:50 EGQK 151950Z AUTO 22017KT 9999 BKN045/// BKN070/// 09/06 Q0996 SW (220°) 19.6mph 9°C 6°C
15/01/19 18:50 EGQK 151850Z AUTO 22016KT 9999 BKN048/// 09/06 Q0997 SW (220°) 18.4mph 9°C 6°C
15/01/19 17:50 EGQK 151750Z AUTO 23018KT 9999 FEW050/// SCT170/// 09/05 Q0998 RERA SW (230°) 20.7mph 9°C 5°C
15/01/19 16:50 EGQK 151650Z AUTO 24015KT 9999 -RA FEW029/// BKN039/// 09/07 Q0999 -RA WSW (240°) 17.3mph 9°C 7°C
15/01/19 15:50 EGQK 151550Z AUTO 24003KT 9999 FEW032/// BKN048/// 09/08 Q1000 RERA WSW (240°) 3.5mph 9°C 8°C
15/01/19 14:50 EGQK 151450Z AUTO 22004KT 9999 -RADZ BKN045/// 08/08 Q1001 -RA -DZ SW (220°) 4.6mph 8°C 8°C
15/01/19 13:50 EGQK 151350Z AUTO 14001KT 9000 -DZ BKN016/// BKN045/// 08/08 Q1002 -DZ SE (140°) 1.2mph 8°C 8°C
15/01/19 12:50 EGQK 151250Z AUTO 18003KT 8000 RA FEW003/// BKN019/// 08/08 Q1003 RA S (180°) 3.5mph 8°C 8°C
15/01/19 11:50 EGQK 151150Z AUTO 22006KT 2700 -DZ FEW003/// BKN011/// 08/08 Q1004 -DZ SW (220°) 6.9mph 8°C 8°C
15/01/19 10:50 EGQK 151050Z AUTO 09001KT //// // SCT013/// 08/08 Q//// E (90°) 1.2mph 8°C 8°C
15/01/19 09:50 EGQK 150950Z AUTO 25003KT //// // SCT039/// OVC046/// 08/07 Q//// WSW (250°) 3.5mph 8°C 7°C
15/01/19 08:50 EGQK 150850Z AUTO 26010KT 9999 -RA FEW024/// BKN050/// 08/07 Q1005 -RA W (260°) 11.5mph 8°C 7°C
15/01/19 07:50 EGQK 150750Z AUTO 26010KT 9999 -RA BKN025/// 09/07 Q1005 -RA W (260°) 11.5mph 9°C 7°C
15/01/19 06:50 EGQK 150650Z AUTO 23005KT 9999 BKN033/// BKN060/// 08/07 Q1005 SW (230°) 5.8mph 8°C 7°C
15/01/19 05:50 EGQK 150550Z AUTO 29009KT 9999 BKN014/// SCT024/// 08/07 Q1005 RERA WNW (290°) 10.4mph 8°C 7°C
15/01/19 04:50 EGQK 150450Z AUTO 26022KT 9999 FEW039/// 10/08 Q1004 W (260°) 25.3mph 10°C 8°C
15/01/19 03:50 EGQK 150350Z AUTO 24016KT 9999 FEW036/// 10/08 Q1004 WSW (240°) 18.4mph 10°C 8°C
15/01/19 02:50 EGQK 150250Z AUTO 24017KT 9999 FEW032/// SCT038/// 10/07 Q1005 WSW (240°) 19.6mph 10°C 7°C
15/01/19 01:50 EGQK 150150Z AUTO 23015KT 9999 FEW033/// BKN060/// 09/07 Q1005 RERA SW (230°) 17.3mph 9°C 7°C
15/01/19 00:50 EGQK 150050Z AUTO 23014KT 9999 FEW050/// SCT070/// 09/06 Q1006 SW (230°) 16.1mph 9°C 6°C
14/01/19 23:50 EGQK 142350Z AUTO 23011KT 9999 BKN070/// 09/06 Q1007 SW (230°) 12.7mph 9°C 6°C
14/01/19 22:50 EGQK 142250Z AUTO 23016KT 9999 BKN090/// BKN160/// 09/06 Q1007 SW (230°) 18.4mph 9°C 6°C
14/01/19 21:50 EGQK 142150Z AUTO 21009KT 9999 FEW029/// BKN160/// 07/05 Q1009 SSW (210°) 10.4mph 7°C 5°C
14/01/19 20:50 EGQK 142050Z AUTO 20010KT 9999 SCT034/// SCT045/// 06/04 Q1009 SSW (200°) 11.5mph 6°C 4°C
14/01/19 19:50 EGQK 141950Z AUTO 21012KT 9999 BKN050/// 07/04 Q1011 SSW (210°) 13.8mph 7°C 4°C
14/01/19 18:50 EGQK 141850Z AUTO 22008KT 9999 OVC060/// 06/03 Q1012 SW (220°) 9.2mph 6°C 3°C
14/01/19 17:50 EGQK 141750Z AUTO 22008KT 9999 OVC050/// 06/03 Q1013 SW (220°) 9.2mph 6°C 3°C
14/01/19 16:50 EGQK 141650Z AUTO 23009KT 9999 FEW035/// BKN060/// 06/03 Q1013 SW (230°) 10.4mph 6°C 3°C
14/01/19 15:50 EGQK 141550Z AUTO 25013KT 9999 OVC080/// 05/03 Q1014 WSW (250°) 15.0mph 5°C 3°C
14/01/19 14:50 EGQK 141450Z AUTO 24010KT 9999 FEW090/// OVC120/// 05/03 Q1014 WSW (240°) 11.5mph 5°C 3°C
14/01/19 13:50 EGQK 141350Z AUTO 23013KT 9999 FEW027/// BKN120/// 05/02 Q1014 SW (230°) 15.0mph 5°C 2°C
14/01/19 12:50 EGQK 141250Z AUTO 22011KT 9999 BKN050/// 05/02 Q1015 SW (220°) 12.7mph 5°C 2°C
14/01/19 11:50 EGQK 141150Z AUTO 21010KT 9999 NCD 04/00 Q1015 SSW (210°) 11.5mph 4°C 0°C
14/01/19 10:50 EGQK 141050Z AUTO 20008KT 9999 NCD 02/M00 Q1016 SSW (200°) 9.2mph 2°C 0°C
14/01/19 09:50 EGQK 140950Z AUTO 20005KT 9999 NCD 01/M01 Q1017 SSW (200°) 5.8mph 1°C -1°C
14/01/19 08:50 EGQK 140850Z AUTO 22006KT 9999 NCD M00/M01 Q1017 SW (220°) 6.9mph 0°C -1°C
14/01/19 07:50 EGQK 140750Z AUTO 22005KT 9999 NCD M01/M01 Q1017 SW (220°) 5.8mph -1°C -1°C
14/01/19 06:50 EGQK 140650Z AUTO 22007KT 9999 NCD 00/M00 Q1017 SW (220°) 8.1mph 0°C 0°C
14/01/19 05:50 EGQK 140550Z AUTO 24007KT 9999 NCD 01/00 Q1016 WSW (240°) 8.1mph 1°C 0°C
14/01/19 04:50 EGQK 140450Z AUTO 28008KT 9999 FEW015/// 02/00 Q1016 W (280°) 9.2mph 2°C 0°C
14/01/19 03:50 EGQK 140350Z AUTO 28007KT 9999 FEW034/// BKN044/// 02/01 Q1016 W (280°) 8.1mph 2°C 1°C
14/01/19 02:50 EGQK 140250Z AUTO 28006KT 9999 FEW015/// BKN034/// 03/01 Q1015 W (280°) 6.9mph 3°C 1°C
14/01/19 01:50 EGQK 140150Z AUTO 34009KT 9999 SCT018/// SCT035/// BKN040/// 03/00 Q1015 RERA NNW (340°) 10.4mph 3°C 0°C
14/01/19 00:50 EGQK 140050Z AUTO 36010KT 9999 FEW017/// BKN021/// BKN031/// 03/01 Q1014 RERA N (360°) 11.5mph 3°C 1°C
13/01/19 23:50 EGQK 132350Z AUTO 04009KT 9999 -RA FEW011/// BKN016/// BKN035/// 03/02 Q1013 -RA NE (40°) 10.4mph 3°C 2°C
13/01/19 22:50 EGQK 132250Z AUTO 04009KT 9999 FEW015/// BKN018/// 04/02 Q1012 RERA NE (40°) 10.4mph 4°C 2°C
13/01/19 21:50 EGQK 132150Z AUTO 05012KT 9999 -RA BKN012/// SCT023/// 04/03 Q1010 -RA NE (50°) 13.8mph 4°C 3°C
13/01/19 20:50 EGQK 132050Z AUTO 03014KT 9999 -RA FEW014/// BKN027/// 05/04 Q1008 -RA NNE (30°) 16.1mph 5°C 4°C
13/01/19 19:50 EGQK 131950Z AUTO 28012KT 9999 BKN034/// BKN090/// 07/04 Q1006 W (280°) 13.8mph 7°C 4°C
13/01/19 18:50 EGQK 131850Z AUTO 28015KT 9999 FEW025/// BKN033/// 07/04 Q1005 RERA W (280°) 17.3mph 7°C 4°C
13/01/19 17:50 EGQK 131750Z AUTO 24010KT 9999 FEW025/// BKN036/// 06/04 Q1004 RERA WSW (240°) 11.5mph 6°C 4°C
13/01/19 16:50 EGQK 131650Z AUTO 28018G28KT 9999 -RA BKN024/// 06/04 Q1003 -RA W (280°) 20.7mph 32.2mph 6°C 4°C
13/01/19 15:50 EGQK 131550Z AUTO 28023KT 9999 RA SCT026/// BKN050/// 06/04 Q1002 RA W (280°) 26.5mph 6°C 4°C
13/01/19 14:50 EGQK 131450Z AUTO 27017KT 9999 SCT030/// 08/04 Q1002 W (270°) 19.6mph 8°C 4°C
13/01/19 13:50 EGQK 131350Z AUTO 27015KT 9999 BKN027/// SCT060/// 08/04 Q1002 RERA W (270°) 17.3mph 8°C 4°C
13/01/19 12:50 EGQK 131250Z AUTO 27017KT 9999 BKN046/// 08/04 Q1002 RERA W (270°) 19.6mph 8°C 4°C
13/01/19 11:50 EGQK 131150Z AUTO 27017KT 9999 FEW027/// SCT044/// 07/05 Q1002 RERA W (270°) 19.6mph 7°C 5°C
13/01/19 10:50 EGQK 131050Z AUTO 27017KT 9999 BKN025/// BKN050/// 07/05 Q1002 RERA W (270°) 19.6mph 7°C 5°C
13/01/19 09:50 EGQK 130950Z AUTO 27018KT 9999 -RA BKN027/// SCT050/// 08/04 Q1001 -RA W (270°) 20.7mph 8°C 4°C
13/01/19 08:50 EGQK 130850Z AUTO 28023KT 9999 -RA FEW033/// SCT040/// 07/04 Q1001 -RA W (280°) 26.5mph 7°C 4°C
13/01/19 07:50 EGQK 130750Z AUTO 26022KT 9999 FEW038/// BKN050/// 08/04 Q1001 RERA W (260°) 25.3mph 8°C 4°C
13/01/19 06:50 EGQK 130650Z AUTO 26023KT 9999 SCT039/// 09/06 Q1000 RERA W (260°) 26.5mph 9°C 6°C
13/01/19 05:50 EGQK 130550Z AUTO 26020KT 9999 SCT033/// BKN038/// BKN048/// 10/07 Q1001 W (260°) 23.0mph 10°C 7°C
13/01/19 04:50 EGQK 130450Z AUTO 24018KT 9999 BKN033/// BKN042/// 11/08 Q1001 WSW (240°) 20.7mph 11°C 8°C
13/01/19 03:50 EGQK 130350Z AUTO 24020G30KT 9999 SCT031/// BKN043/// 11/08 Q1002 WSW (240°) 23.0mph 34.5mph 11°C 8°C
13/01/19 02:50 EGQK 130250Z AUTO 25019KT 9999 OVC031/// 10/09 Q1002 WSW (250°) 21.9mph 10°C 9°C
13/01/19 01:50 EGQK 130150Z AUTO 25018G28KT 9999 BKN033/// SCT042/// 10/09 Q1003 RERA WSW (250°) 20.7mph 32.2mph 10°C 9°C
13/01/19 00:50 EGQK 130050Z AUTO 24018KT 9999 RA BKN045/// 10/09 Q1004 RA WSW (240°) 20.7mph 10°C 9°C
12/01/19 23:50 EGQK 122350Z AUTO 25019G30KT 9999 -RA FEW036/// BKN042/// 10/08 Q1004 -RA WSW (250°) 21.9mph 34.5mph 10°C 8°C
12/01/19 22:50 EGQK 122250Z AUTO 25020KT 9999 -RA SCT042/// BKN070/// 11/08 Q1004 -RA WSW (250°) 23.0mph 11°C 8°C
12/01/19 21:50 EGQK 122150Z AUTO 25020KT 9999 -RA FEW028/// SCT033/// BKN042/// 11/08 Q1005 -RA WSW (250°) 23.0mph 11°C 8°C
12/01/19 20:50 EGQK 122050Z AUTO 24017KT 9999 SCT031/// SCT039/// BKN070/// 11/08 Q1006 RERA WSW (240°) 19.6mph 11°C 8°C
12/01/19 19:50 EGQK 121950Z AUTO 25019KT 9999 -RA BKN034/// 10/08 Q1007 -RA WSW (250°) 21.9mph 10°C 8°C
12/01/19 18:50 EGQK 121850Z AUTO 25015KT 9999 -RA BKN034/// BKN041/// 10/08 Q1007 -RA WSW (250°) 17.3mph 10°C 8°C
12/01/19 17:50 EGQK 121750Z AUTO 24015KT 9999 -RA OVC028/// 10/08 Q1008 -RA WSW (240°) 17.3mph 10°C 8°C
12/01/19 16:50 EGQK 121650Z AUTO 24012KT 9999 -RA SCT029/// SCT050/// 10/08 Q1008 -RA WSW (240°) 13.8mph 10°C 8°C
12/01/19 15:50 EGQK 121550Z AUTO 25014KT 9999 -RA BKN027/// 10/07 Q1009 -RA WSW (250°) 16.1mph 10°C 7°C
12/01/19 14:50 EGQK 121450Z AUTO 25016KT 9999 BKN028/// SCT044/// 09/06 Q1009 RERA WSW (250°) 18.4mph 9°C 6°C
12/01/19 13:50 EGQK 121350Z AUTO 24016KT 9999 BKN027/// BKN032/// 09/05 Q1009 WSW (240°) 18.4mph 9°C 5°C
12/01/19 12:50 EGQK 121250Z AUTO 25017KT 9999 BKN031/// 09/05 Q1010 WSW (250°) 19.6mph 9°C 5°C
12/01/19 11:50 EGQK 121150Z AUTO 25018KT 9999 BKN032/// BKN090/// 09/05 Q1010 WSW (250°) 20.7mph 9°C 5°C
12/01/19 10:50 EGQK 121050Z AUTO 25015KT 9999 BKN031/// SCT050/// 08/05 Q1011 WSW (250°) 17.3mph 8°C 5°C
12/01/19 09:50 EGQK 120950Z AUTO 25017KT 9999 BKN031/// BKN045/// 08/05 Q1011 WSW (250°) 19.6mph 8°C 5°C
12/01/19 08:50 EGQK 120850Z AUTO 26015KT 9999 FEW031/// BKN200/// 07/05 Q1011 RERA W (260°) 17.3mph 7°C 5°C
12/01/19 07:50 EGQK 120750Z AUTO 24012KT 9999 BKN031/// SCT090/// BKN210/// 07/05 Q1012 RERA WSW (240°) 13.8mph 7°C 5°C
12/01/19 06:50 EGQK 120650Z AUTO 24014KT 9999 SCT033/// BKN050/// 07/05 Q1011 WSW (240°) 16.1mph 7°C 5°C
12/01/19 05:50 EGQK 120550Z AUTO 24015KT 9999 BKN032/// BKN043/// 07/05 Q1012 WSW (240°) 17.3mph 7°C 5°C
12/01/19 04:50 EGQK 120450Z AUTO 24015KT 9999 BKN035/// SCT045/// 08/05 Q1012 RERA WSW (240°) 17.3mph 8°C 5°C
12/01/19 03:50 EGQK 120350Z AUTO 25016KT 9999 BKN036/// BKN047/// 07/05 Q1012 RERA WSW (250°) 18.4mph 7°C 5°C
12/01/19 02:50 EGQK 120250Z AUTO 25018KT 9999 BKN035/// BKN041/// 08/05 Q1013 WSW (250°) 20.7mph 8°C 5°C
12/01/19 01:50 EGQK 120150Z AUTO 26018KT 9999 BKN037/// 08/05 Q1013 RERA W (260°) 20.7mph 8°C 5°C
12/01/19 00:50 EGQK 120050Z AUTO 24017KT 9999 FEW050/// 08/05 Q1013 WSW (240°) 19.6mph 8°C 5°C
11/01/19 23:50 EGQK 112350Z AUTO 24015G27KT 9999 FEW050/// 08/06 Q1014 RERA WSW (240°) 17.3mph 31.1mph 8°C 6°C
11/01/19 22:50 EGQK 112250Z AUTO 23013KT 9999 FEW033/// 09/06 Q1014 RERA SW (230°) 15.0mph 9°C 6°C
11/01/19 21:50 EGQK 112150Z AUTO 22013KT 9999 FEW090/// SCT140/// 08/05 Q1015 SW (220°) 15.0mph 8°C 5°C
11/01/19 20:50 EGQK 112050Z AUTO 22011KT 9999 FEW031/// BKN044/// 09/05 Q1018 SW (220°) 12.7mph 9°C 5°C
11/01/19 19:50 EGQK 111950Z AUTO 22010KT 9999 FEW032/// BKN037/// 09/06 Q1019 SW (220°) 11.5mph 9°C 6°C
11/01/19 18:50 EGQK 111850Z AUTO 21007KT 9999 FEW027/// BKN035/// 08/06 Q1021 SSW (210°) 8.1mph 8°C 6°C
11/01/19 17:50 EGQK 111750Z AUTO 22008KT 9999 OVC037/// 09/06 Q1022 SW (220°) 9.2mph 9°C 6°C
11/01/19 16:50 EGQK 111650Z AUTO 24011KT 9999 OVC030/// 09/05 Q1023 WSW (240°) 12.7mph 9°C 5°C
11/01/19 15:50 EGQK 111550Z AUTO 25007KT 9999 OVC036/// 08/06 Q1024 WSW (250°) 8.1mph 8°C 6°C
11/01/19 14:50 EGQK 111450Z AUTO 23010KT 9999 OVC031/// 09/06 Q1024 SW (230°) 11.5mph 9°C 6°C
11/01/19 13:50 EGQK 111350Z AUTO 24012KT 9999 OVC035/// 09/06 Q1025 WSW (240°) 13.8mph 9°C 6°C
11/01/19 12:50 EGQK 111250Z AUTO 24010KT 9999 OVC034/// 09/06 Q1026 WSW (240°) 11.5mph 9°C 6°C
11/01/19 11:50 EGQK 111150Z AUTO 24008KT 9999 BKN040/// 08/06 Q1027 WSW (240°) 9.2mph 8°C 6°C
11/01/19 10:50 EGQK 111050Z AUTO 26009KT 9999 FEW018/// BKN037/// 07/07 Q1028 RERA W (260°) 10.4mph 7°C 7°C
11/01/19 09:50 EGQK 110950Z AUTO 29009KT 7000 -RA BKN019/// SCT026/// 08/06 Q1028 -RA WNW (290°) 10.4mph 8°C 6°C
11/01/19 08:50 EGQK 110850Z AUTO 26010KT 9999 SCT028/// BKN036/// 08/05 Q1028 W (260°) 11.5mph 8°C 5°C
11/01/19 07:50 EGQK 110750Z AUTO 26009KT 9999 BKN028/// 08/05 Q1028 W (260°) 10.4mph 8°C 5°C
11/01/19 06:50 EGQK 110650Z AUTO 24010KT 9999 BKN031/// OVC041/// 08/05 Q1028 WSW (240°) 11.5mph 8°C 5°C
11/01/19 05:50 EGQK 110550Z AUTO 24011KT 9999 SCT028/// OVC036/// 08/04 Q1028 WSW (240°) 12.7mph 8°C 4°C
11/01/19 04:50 EGQK 110450Z AUTO 23009KT 9999 OVC030/// 08/04 Q1028 SW (230°) 10.4mph 8°C 4°C
11/01/19 03:50 EGQK 110350Z AUTO 27010KT 9999 BKN028/// BKN035/// 08/05 Q1029 RERA W (270°) 11.5mph 8°C 5°C
11/01/19 02:50 EGQK 110250Z AUTO 27009KT 9999 BKN027/// 08/05 Q1029 W (270°) 10.4mph 8°C 5°C
11/01/19 01:50 EGQK 110150Z AUTO 24009KT 9999 BKN035/// SCT044/// 08/06 Q1028 RERA WSW (240°) 10.4mph 8°C 6°C
11/01/19 00:50 EGQK 110050Z AUTO 25014KT 9999 SCT026/// SCT037/// BKN042/// 08/05 Q1028 WSW (250°) 16.1mph 8°C 5°C
10/01/19 23:50 EGQK 102350Z AUTO 24010KT 9999 FEW032/// BKN039/// BKN044/// 08/05 Q1028 RERA WSW (240°) 11.5mph 8°C 5°C
10/01/19 22:50 EGQK 102250Z AUTO 26013KT 9999 BKN036/// 09/05 Q1029 W (260°) 15.0mph 9°C 5°C
10/01/19 21:50 EGQK 102150Z AUTO 26014KT 9999 BKN027/// BKN036/// BKN041/// 08/06 Q1029 W (260°) 16.1mph 8°C 6°C
10/01/19 20:50 EGQK 102050Z AUTO 25012KT 9999 OVC033/// 09/06 Q1029 WSW (250°) 13.8mph 9°C 6°C
10/01/19 19:50 EGQK 101950Z AUTO 23010KT 9999 SCT029/// OVC039/// 09/06 Q1028 SW (230°) 11.5mph 9°C 6°C
10/01/19 18:50 EGQK 101850Z AUTO 23011KT 9999 OVC030/// 08/06 Q1028 SW (230°) 12.7mph 8°C 6°C
10/01/19 17:50 EGQK 101750Z AUTO 23011KT 9999 BKN040/// 08/05 Q1028 SW (230°) 12.7mph 8°C 5°C
10/01/19 16:50 EGQK 101650Z AUTO 25010KT 9999 FEW029/// BKN039/// 08/06 Q1028 RERA WSW (250°) 11.5mph 8°C 6°C
10/01/19 15:50 EGQK 101550Z AUTO 25011KT 9999 -RA BKN027/// SCT039/// 08/06 Q1028 -RA WSW (250°) 12.7mph 8°C 6°C
10/01/19 14:50 EGQK 101450Z AUTO 25009KT 9999 SCT032/// BKN039/// BKN050/// 08/06 Q1028 WSW (250°) 10.4mph 8°C 6°C
10/01/19 13:50 EGQK 101350Z AUTO 24011KT 9999 FEW024/// BKN040/// 09/06 Q1028 RERA WSW (240°) 12.7mph 9°C 6°C
10/01/19 12:50 EGQK 101250Z AUTO 26012KT 9999 -RA SCT036/// BKN050/// 08/06 Q1028 -RA W (260°) 13.8mph 8°C 6°C
10/01/19 11:50 EGQK 101150Z AUTO 24010KT 9999 BKN045/// 09/07 Q1028 RERA WSW (240°) 11.5mph 9°C 7°C
10/01/19 10:50 EGQK 101050Z AUTO 24008KT 9999 OVC050/// 09/07 Q1028 WSW (240°) 9.2mph 9°C 7°C
10/01/19 09:50 EGQK 100950Z AUTO 24008KT 9999 BKN050/// 09/07 Q1028 WSW (240°) 9.2mph 9°C 7°C
10/01/19 08:50 EGQK 100850Z AUTO 25008KT 9999 FEW030/// BKN050/// 09/07 Q1028 WSW (250°) 9.2mph 9°C 7°C
10/01/19 07:50 EGQK 100750Z AUTO 26007KT 9999 OVC050/// 09/07 Q1028 W (260°) 8.1mph 9°C 7°C
10/01/19 06:50 EGQK 100650Z AUTO 25011KT 9999 OVC050/// 09/07 Q1027 WSW (250°) 12.7mph 9°C 7°C
10/01/19 05:50 EGQK 100550Z AUTO 25011KT 9999 OVC050/// 09/07 Q1027 WSW (250°) 12.7mph 9°C 7°C
10/01/19 04:50 EGQK 100450Z AUTO 24009KT 9999 BKN050/// 09/07 Q1027 WSW (240°) 10.4mph 9°C 7°C
10/01/19 03:50 EGQK 100350Z AUTO 25013KT 9999 BKN038/// 08/06 Q1027 WSW (250°) 15.0mph 8°C 6°C